createdAt,value
2019-06-07T00:00:29.617Z,0.00
2019-06-07T00:01:11.653Z,0.00
2019-06-07T00:02:13.304Z,0.00
2019-06-07T00:03:24.017Z,0.00
2019-06-07T00:04:13.485Z,0.00
2019-06-07T00:05:14.971Z,0.00
2019-06-07T00:06:16.319Z,0.00
2019-06-07T00:07:12.569Z,0.00
2019-06-07T00:08:19.847Z,0.00
2019-06-07T00:09:12.691Z,0.00
2019-06-07T00:10:15.334Z,0.00
2019-06-07T00:11:15.645Z,0.00
2019-06-07T00:12:14.050Z,0.00
2019-06-07T00:13:12.926Z,0.00
2019-06-07T00:14:14.259Z,0.00
2019-06-07T00:15:15.246Z,0.00
2019-06-07T00:16:11.967Z,0.00
2019-06-07T00:17:13.727Z,0.00
2019-06-07T00:18:14.376Z,0.00
2019-06-07T00:19:12.073Z,0.00
2019-06-07T00:20:13.864Z,0.00
2019-06-07T00:21:11.914Z,0.00
2019-06-07T00:22:19.740Z,0.00
2019-06-07T00:23:12.184Z,0.00
2019-06-07T00:24:13.059Z,0.00
2019-06-07T00:25:13.393Z,0.00
2019-06-07T00:26:10.878Z,0.00
2019-06-07T00:27:11.610Z,0.00
2019-06-07T00:28:10.763Z,0.00
2019-06-07T00:29:13.817Z,0.00
2019-06-07T00:30:34.921Z,0.00
2019-06-07T00:31:11.525Z,0.00
2019-06-07T00:32:11.691Z,0.00
2019-06-07T00:33:15.334Z,0.00
2019-06-07T00:34:11.854Z,0.00
2019-06-07T00:35:11.934Z,0.00
2019-06-07T00:36:14.097Z,0.00
2019-06-07T00:37:11.147Z,0.00
2019-06-07T00:38:11.799Z,0.00
2019-06-07T00:39:11.381Z,0.00
2019-06-07T00:40:16.211Z,0.00
2019-06-07T00:41:10.160Z,0.00
2019-06-07T00:42:10.848Z,0.00
2019-06-07T00:43:14.200Z,0.00
2019-06-07T00:44:10.179Z,0.00
2019-06-07T00:45:11.208Z,0.00
2019-06-07T00:46:14.070Z,0.00
2019-06-07T00:47:10.678Z,0.00
2019-06-07T00:48:15.992Z,0.00
2019-06-07T00:49:12.088Z,0.00
2019-06-07T00:50:11.112Z,0.00
2019-06-07T00:51:11.255Z,0.00
2019-06-07T00:52:11.095Z,0.00
2019-06-07T00:53:26.783Z,0.00
2019-06-07T00:54:09.708Z,0.00
2019-06-07T00:55:09.634Z,0.00
2019-06-07T00:56:09.623Z,0.00
2019-06-07T00:57:09.589Z,0.00
2019-06-07T00:58:09.533Z,0.00
2019-06-07T00:59:11.700Z,0.00
2019-06-07T01:00:09.460Z,0.00
2019-06-07T01:01:09.429Z,0.00
2019-06-07T01:02:09.402Z,0.00
2019-06-07T01:03:09.382Z,0.00
2019-06-07T01:04:09.309Z,0.00
2019-06-07T01:05:09.428Z,0.00
2019-06-07T01:06:09.236Z,0.00
2019-06-07T01:07:09.223Z,0.00
2019-06-07T01:08:09.165Z,0.00
2019-06-07T01:09:09.122Z,0.00
2019-06-07T01:10:09.087Z,0.00
2019-06-07T01:11:09.048Z,0.00
2019-06-07T01:12:09.030Z,0.00
2019-06-07T01:13:08.977Z,0.00
2019-06-07T01:14:08.954Z,0.00
2019-06-07T01:15:08.901Z,0.00
2019-06-07T01:16:08.868Z,0.00
2019-06-07T01:17:23.669Z,0.00
2019-06-07T01:19:08.756Z,0.00
2019-06-07T01:20:08.725Z,0.00
2019-06-07T01:21:08.686Z,0.00
2019-06-07T01:22:08.714Z,0.00
2019-06-07T01:23:51.795Z,0.00
2019-06-07T01:24:12.313Z,0.00
2019-06-07T01:25:08.543Z,0.00
2019-06-07T01:26:08.514Z,0.00
2019-06-07T01:27:08.465Z,0.00
2019-06-07T01:28:08.431Z,0.00
2019-06-07T01:29:08.428Z,0.00
2019-06-07T01:30:08.371Z,0.00
2019-06-07T01:31:08.333Z,0.00
2019-06-07T01:32:08.287Z,0.00
2019-06-07T01:33:08.252Z,0.00
2019-06-07T01:34:08.211Z,0.00
2019-06-07T01:35:08.188Z,0.00
2019-06-07T01:36:08.123Z,0.00
2019-06-07T01:37:08.112Z,0.00
2019-06-07T01:38:08.057Z,0.00
2019-06-07T01:39:08.026Z,0.00
2019-06-07T01:40:07.994Z,0.00
2019-06-07T01:41:07.941Z,0.00
2019-06-07T01:42:07.915Z,0.00
2019-06-07T01:43:07.874Z,0.00
2019-06-07T01:44:07.832Z,0.00
2019-06-07T01:45:07.801Z,0.00
2019-06-07T01:46:07.756Z,0.00
2019-06-07T01:47:07.726Z,0.00
2019-06-07T01:48:07.691Z,0.00
2019-06-07T01:49:07.655Z,0.00
2019-06-07T01:50:07.617Z,0.00
2019-06-07T01:51:07.578Z,0.00
2019-06-07T01:52:07.545Z,0.00
2019-06-07T01:53:07.502Z,0.00
2019-06-07T01:54:49.444Z,0.00
2019-06-07T01:55:07.468Z,0.00
2019-06-07T01:56:07.444Z,0.00
2019-06-07T01:57:07.445Z,0.00
2019-06-07T01:58:07.343Z,0.00
2019-06-07T01:59:07.311Z,0.00
2019-06-07T02:00:07.253Z,0.00
2019-06-07T02:01:07.241Z,0.00
2019-06-07T02:02:07.189Z,0.00
2019-06-07T02:03:07.184Z,0.00
2019-06-07T02:04:07.123Z,0.00
2019-06-07T02:05:07.120Z,0.00
2019-06-07T02:06:07.066Z,0.00
2019-06-07T02:07:07.068Z,0.00
2019-06-07T02:08:07.025Z,0.00
2019-06-07T02:09:06.938Z,0.00
2019-06-07T02:10:06.887Z,0.00
2019-06-07T02:11:06.848Z,0.00
2019-06-07T02:12:25.203Z,0.00
2019-06-07T02:13:06.772Z,0.00
2019-06-07T02:14:06.742Z,0.00
2019-06-07T02:15:06.696Z,0.00
2019-06-07T02:16:06.666Z,0.00
2019-06-07T02:17:06.625Z,0.00
2019-06-07T02:18:06.589Z,0.00
2019-06-07T02:19:06.568Z,0.00
2019-06-07T02:20:06.517Z,0.00
2019-06-07T02:21:06.484Z,0.00
2019-06-07T02:22:06.450Z,0.00
2019-06-07T02:23:06.412Z,0.00
2019-06-07T02:24:06.368Z,0.00
2019-06-07T02:25:35.134Z,0.00
2019-06-07T02:26:06.320Z,0.00
2019-06-07T02:27:06.280Z,0.00
2019-06-07T02:28:27.656Z,0.00
2019-06-07T02:29:06.231Z,0.00
2019-06-07T02:30:36.783Z,0.00
2019-06-07T02:31:06.119Z,0.00
2019-06-07T02:32:06.104Z,0.00
2019-06-07T02:33:06.084Z,0.00
2019-06-07T02:34:06.036Z,0.00
2019-06-07T02:35:06.030Z,0.00
2019-06-07T02:36:05.951Z,0.00
2019-06-07T02:37:05.934Z,0.00
2019-06-07T02:38:05.867Z,0.00
2019-06-07T02:39:05.832Z,0.00
2019-06-07T02:40:05.802Z,0.00
2019-06-07T02:41:05.805Z,0.00
2019-06-07T02:42:05.729Z,0.00
2019-06-07T02:43:05.678Z,0.00
2019-06-07T02:44:05.638Z,0.00
2019-06-07T02:45:05.608Z,0.00
2019-06-07T02:46:25.397Z,0.00
2019-06-07T02:47:05.533Z,0.00
2019-06-07T02:48:05.498Z,0.00
2019-06-07T02:49:05.457Z,0.00
2019-06-07T02:50:05.416Z,0.00
2019-06-07T02:51:05.384Z,5.63
2019-06-07T02:52:05.346Z,5.63
2019-06-07T02:53:05.312Z,5.63
2019-06-07T02:54:05.276Z,5.63
2019-06-07T02:55:05.232Z,5.63
2019-06-07T02:56:37.425Z,5.63
2019-06-07T02:57:05.181Z,5.63
2019-06-07T02:58:05.177Z,11.25
2019-06-07T02:59:05.108Z,11.25
2019-06-07T03:00:17.076Z,11.25
2019-06-07T03:01:09.348Z,11.25
2019-06-07T03:02:04.996Z,11.25
2019-06-07T03:03:04.962Z,16.88
2019-06-07T03:04:04.918Z,16.88
2019-06-07T03:05:04.911Z,16.88
2019-06-07T03:06:04.855Z,16.88
2019-06-07T03:07:04.875Z,16.88
2019-06-07T03:08:04.786Z,22.50
2019-06-07T03:09:04.738Z,22.50
2019-06-07T03:10:04.790Z,22.50
2019-06-07T03:11:04.665Z,22.50
2019-06-07T03:12:04.638Z,28.13
2019-06-07T03:13:04.572Z,28.13
2019-06-07T03:14:04.547Z,33.75
2019-06-07T03:15:04.508Z,33.75
2019-06-07T03:16:04.486Z,33.75
2019-06-07T03:17:04.442Z,33.75
2019-06-07T03:18:04.397Z,39.38
2019-06-07T03:19:04.366Z,39.38
2019-06-07T03:20:04.331Z,45.00
2019-06-07T03:21:05.602Z,45.00
2019-06-07T03:22:04.243Z,50.63
2019-06-07T03:23:04.441Z,50.63
2019-06-07T03:24:04.166Z,56.25
2019-06-07T03:25:04.133Z,56.25
2019-06-07T03:26:04.095Z,56.25
2019-06-07T03:27:32.688Z,61.88
2019-06-07T03:28:04.016Z,61.88
2019-06-07T03:29:04.029Z,67.50
2019-06-07T03:30:35.423Z,67.50
2019-06-07T03:31:03.946Z,73.13
2019-06-07T03:32:03.957Z,73.13
2019-06-07T03:33:03.899Z,78.75
2019-06-07T03:34:03.820Z,78.75
2019-06-07T03:35:03.808Z,84.38
2019-06-07T03:36:22.693Z,84.38
2019-06-07T03:37:03.710Z,90.00
2019-06-07T03:38:03.674Z,90.00
2019-06-07T03:39:03.625Z,90.00
2019-06-07T03:40:03.640Z,90.00
2019-06-07T03:41:03.568Z,90.00
2019-06-07T03:42:06.628Z,95.63
2019-06-07T03:43:03.528Z,95.63
2019-06-07T03:44:03.439Z,95.63
2019-06-07T03:45:03.408Z,101.25
2019-06-07T03:46:03.360Z,101.25
2019-06-07T03:47:03.329Z,101.25
2019-06-07T03:48:03.277Z,101.25
2019-06-07T03:49:03.262Z,101.25
2019-06-07T03:50:03.221Z,101.25
2019-06-07T03:51:04.897Z,106.88
2019-06-07T03:52:03.145Z,106.88
2019-06-07T03:53:03.110Z,106.88
2019-06-07T03:54:03.072Z,112.50
2019-06-07T03:55:03.031Z,118.13
2019-06-07T03:56:03.079Z,118.13
2019-06-07T03:57:02.957Z,123.75
2019-06-07T03:58:31.389Z,129.38
2019-06-07T03:59:02.890Z,129.38
2019-06-07T04:00:02.859Z,129.38
2019-06-07T04:01:02.826Z,129.38
2019-06-07T04:02:02.806Z,129.38
2019-06-07T04:03:02.784Z,129.38
2019-06-07T04:04:02.719Z,135.00
2019-06-07T04:05:02.692Z,140.63
2019-06-07T04:06:02.638Z,140.63
2019-06-07T04:07:02.637Z,146.25
2019-06-07T04:08:02.567Z,146.25
2019-06-07T04:09:02.560Z,157.50
2019-06-07T04:10:02.485Z,157.50
2019-06-07T04:11:02.488Z,168.75
2019-06-07T04:12:02.397Z,174.38
2019-06-07T04:13:02.413Z,185.63
2019-06-07T04:14:02.349Z,185.63
2019-06-07T04:15:02.295Z,191.25
2019-06-07T04:16:02.261Z,191.25
2019-06-07T04:17:02.281Z,196.88
2019-06-07T04:18:03.997Z,196.88
2019-06-07T04:19:02.245Z,196.88
2019-06-07T04:20:02.255Z,196.88
2019-06-07T04:21:02.085Z,196.88
2019-06-07T04:22:02.095Z,196.88
2019-06-07T04:23:02.000Z,208.13
2019-06-07T04:24:01.980Z,213.75
2019-06-07T04:25:01.931Z,225.00
2019-06-07T04:26:01.901Z,230.63
2019-06-07T04:27:01.870Z,241.88
2019-06-07T04:28:01.821Z,253.13
2019-06-07T04:29:32.591Z,270.00
2019-06-07T04:30:07.349Z,286.88
2019-06-07T04:31:01.718Z,298.13
2019-06-07T04:32:04.141Z,315.00
2019-06-07T04:33:01.648Z,326.25
2019-06-07T04:34:01.612Z,331.88
2019-06-07T04:35:01.643Z,337.50
2019-06-07T04:36:01.583Z,343.13
2019-06-07T04:37:01.500Z,354.38
2019-06-07T04:38:01.462Z,360.00
2019-06-07T04:39:01.488Z,360.00
2019-06-07T04:40:01.402Z,348.75
2019-06-07T04:41:01.374Z,337.50
2019-06-07T04:42:01.324Z,320.63
2019-06-07T04:43:01.314Z,315.00
2019-06-07T04:44:01.312Z,315.00
2019-06-07T04:45:01.246Z,315.00
2019-06-07T04:46:01.196Z,360.00
2019-06-07T04:47:01.181Z,405.00
2019-06-07T04:48:01.173Z,421.88
2019-06-07T04:49:01.062Z,461.25
2019-06-07T04:50:01.021Z,466.88
2019-06-07T04:51:01.048Z,466.88
2019-06-07T04:52:00.941Z,472.50
2019-06-07T04:53:00.911Z,478.13
2019-06-07T04:54:00.892Z,472.50
2019-06-07T04:55:00.893Z,461.25
2019-06-07T04:56:00.854Z,461.25
2019-06-07T04:57:00.965Z,461.25
2019-06-07T04:58:00.768Z,472.50
2019-06-07T04:59:00.702Z,466.88
2019-06-07T05:00:12.756Z,455.63
2019-06-07T05:01:03.351Z,455.63
2019-06-07T05:02:00.590Z,478.13
2019-06-07T05:03:00.552Z,472.50
2019-06-07T05:04:00.523Z,461.25
2019-06-07T05:05:00.494Z,450.00
2019-06-07T05:06:00.452Z,427.50
2019-06-07T05:07:00.430Z,444.38
2019-06-07T05:08:07.151Z,438.75
2019-06-07T05:09:00.367Z,433.13
2019-06-07T05:10:00.343Z,427.50
2019-06-07T05:11:00.306Z,433.13
2019-06-07T05:12:00.333Z,455.63
2019-06-07T05:13:00.264Z,472.50
2019-06-07T05:14:00.164Z,500.63
2019-06-07T05:15:00.140Z,511.88
2019-06-07T05:16:00.104Z,517.50
2019-06-07T05:17:00.118Z,517.50
2019-06-07T05:18:00.040Z,523.13
2019-06-07T05:19:00.015Z,528.75
2019-06-07T05:19:59.995Z,540.00
2019-06-07T05:21:00.027Z,528.75
2019-06-07T05:22:04.825Z,523.13
2019-06-07T05:22:59.899Z,523.13
2019-06-07T05:24:08.423Z,534.38
2019-06-07T05:24:59.827Z,551.25
2019-06-07T05:25:59.744Z,534.38
2019-06-07T05:26:59.705Z,511.88
2019-06-07T05:27:59.682Z,495.00
2019-06-07T05:28:59.647Z,489.38
2019-06-07T05:30:09.517Z,483.75
2019-06-07T05:31:05.315Z,495.00
2019-06-07T05:31:59.536Z,489.38
2019-06-07T05:32:59.499Z,472.50
2019-06-07T05:33:59.469Z,461.25
2019-06-07T05:34:59.474Z,455.63
2019-06-07T05:35:59.403Z,444.38
2019-06-07T05:37:11.688Z,455.63
2019-06-07T05:37:59.345Z,489.38
2019-06-07T05:38:59.317Z,534.38
2019-06-07T05:39:59.283Z,556.88
2019-06-07T05:40:59.231Z,568.13
2019-06-07T05:41:59.223Z,562.50
2019-06-07T05:42:59.161Z,568.13
2019-06-07T05:44:12.060Z,579.38
2019-06-07T05:44:59.127Z,601.88
2019-06-07T05:45:59.055Z,618.75
2019-06-07T05:46:59.061Z,635.63
2019-06-07T05:48:02.711Z,641.25
2019-06-07T05:48:59.006Z,635.63
2019-06-07T05:49:58.928Z,630.00
2019-06-07T05:50:58.880Z,618.75
2019-06-07T05:52:00.810Z,624.38
2019-06-07T05:52:58.817Z,635.63
2019-06-07T05:53:58.765Z,630.00
2019-06-07T05:54:58.737Z,618.75
2019-06-07T05:55:58.716Z,596.25
2019-06-07T05:56:58.676Z,590.63
2019-06-07T05:57:58.674Z,590.63
2019-06-07T05:58:58.600Z,613.13
2019-06-07T05:59:58.554Z,641.25
2019-06-07T06:01:41.028Z,663.75
2019-06-07T06:02:05.033Z,708.75
2019-06-07T06:03:05.192Z,759.38
2019-06-07T06:03:58.431Z,798.75
2019-06-07T06:04:58.417Z,810.00
2019-06-07T06:05:58.368Z,815.63
2019-06-07T06:06:58.323Z,798.75
2019-06-07T06:07:58.354Z,765.00
2019-06-07T06:09:13.530Z,736.88
2019-06-07T06:09:58.230Z,725.63
2019-06-07T06:10:58.203Z,736.88
2019-06-07T06:12:02.325Z,765.00
2019-06-07T06:12:58.193Z,759.38
2019-06-07T06:14:07.588Z,720.00
2019-06-07T06:14:58.107Z,720.00
2019-06-07T06:16:02.069Z,753.75
2019-06-07T06:16:58.013Z,770.63
2019-06-07T06:17:58.042Z,748.13
2019-06-07T06:18:57.938Z,759.38
2019-06-07T06:19:57.891Z,787.50
2019-06-07T06:21:16.446Z,826.88
2019-06-07T06:21:57.864Z,871.88
2019-06-07T06:22:57.869Z,883.13
2019-06-07T06:23:57.779Z,877.50
2019-06-07T06:25:58.464Z,900.00
2019-06-07T06:27:15.188Z,916.88
2019-06-07T06:28:10.029Z,900.00
2019-06-07T06:28:57.605Z,877.50
2019-06-07T06:29:57.552Z,866.25
2019-06-07T06:30:57.531Z,849.38
2019-06-07T06:32:40.357Z,815.63
2019-06-07T06:32:58.686Z,798.75
2019-06-07T06:33:57.418Z,815.63
2019-06-07T06:34:57.391Z,911.25
2019-06-07T06:35:57.419Z,1006.88
2019-06-07T06:36:57.323Z,1068.75
2019-06-07T06:37:57.300Z,1068.75
2019-06-07T06:38:57.273Z,1046.25
2019-06-07T06:39:57.241Z,1035.00
2019-06-07T06:41:14.580Z,1023.75
2019-06-07T06:42:03.502Z,984.38
2019-06-07T06:42:57.165Z,967.50
2019-06-07T06:43:57.107Z,978.75
2019-06-07T06:44:57.071Z,978.75
2019-06-07T06:45:57.034Z,950.63
2019-06-07T06:46:58.384Z,928.13
2019-06-07T06:47:56.961Z,961.88
2019-06-07T06:48:57.011Z,984.38
2019-06-07T06:49:56.906Z,967.50
2019-06-07T06:50:56.929Z,945.00
2019-06-07T06:51:56.837Z,978.75
2019-06-07T06:52:56.808Z,978.75
2019-06-07T06:53:56.810Z,1035.00
2019-06-07T06:55:00.936Z,1057.50
2019-06-07T06:55:56.698Z,1051.88
2019-06-07T06:57:17.558Z,1063.13
2019-06-07T06:57:56.646Z,1125.00
2019-06-07T06:59:56.580Z,1130.63
2019-06-07T07:01:05.767Z,1147.50
2019-06-07T07:01:56.505Z,1108.13
2019-06-07T07:04:10.549Z,1063.13
2019-06-07T07:04:56.415Z,1164.38
2019-06-07T07:05:56.393Z,1147.50
2019-06-07T07:06:56.350Z,1192.50
2019-06-07T07:07:56.312Z,1237.50
2019-06-07T07:08:56.289Z,1243.13
2019-06-07T07:09:59.347Z,1310.63
2019-06-07T07:10:56.244Z,1321.88
2019-06-07T07:12:11.132Z,1288.13
2019-06-07T07:12:56.169Z,1372.50
2019-06-07T07:13:57.079Z,1440.00
2019-06-07T07:14:56.344Z,1462.50
2019-06-07T07:15:58.249Z,1676.25
2019-06-07T07:16:56.815Z,1861.88
2019-06-07T07:18:07.977Z,1704.38
2019-06-07T07:18:55.978Z,1490.63
2019-06-07T07:19:56.021Z,1338.75
2019-06-07T07:20:57.547Z,1316.25
2019-06-07T07:21:55.891Z,1310.63
2019-06-07T07:22:57.097Z,1400.63
2019-06-07T07:24:19.795Z,1575.00
2019-06-07T07:24:55.840Z,1732.50
2019-06-07T07:25:59.503Z,1895.63
2019-06-07T07:26:58.361Z,1878.75
2019-06-07T07:27:55.721Z,1760.63
2019-06-07T07:28:57.815Z,1698.75
2019-06-07T07:30:34.280Z,1749.38
2019-06-07T07:30:57.167Z,1867.50
2019-06-07T07:31:56.574Z,1743.75
2019-06-07T07:32:59.340Z,1726.88
2019-06-07T07:35:00.342Z,1665.00
2019-06-07T07:36:17.570Z,1620.00
2019-06-07T07:36:59.700Z,1580.63
2019-06-07T07:37:59.639Z,1620.00
2019-06-07T07:39:04.126Z,1783.13
2019-06-07T07:40:01.712Z,1912.50
2019-06-07T07:41:07.384Z,1878.75
2019-06-07T07:42:18.081Z,1980.00
2019-06-07T07:42:56.823Z,2148.75
2019-06-07T07:44:05.391Z,2205.00
2019-06-07T07:44:56.822Z,1957.50
2019-06-07T07:46:01.627Z,1704.38
2019-06-07T07:46:56.358Z,1642.50
2019-06-07T07:48:08.192Z,1659.38
2019-06-07T07:48:56.213Z,1597.50
2019-06-07T07:49:58.094Z,1620.00
2019-06-07T07:51:00.363Z,1473.75
2019-06-07T07:51:58.475Z,1271.25
2019-06-07T07:53:00.300Z,1338.75
2019-06-07T07:54:09.084Z,1558.13
2019-06-07T07:54:56.690Z,1586.25
2019-06-07T07:55:59.689Z,2008.13
2019-06-07T07:56:56.110Z,2115.00
2019-06-07T07:58:01.114Z,1895.63
2019-06-07T07:59:01.074Z,1912.50
2019-06-07T08:00:25.256Z,3397.50
2019-06-07T08:01:07.659Z,3650.63
2019-06-07T08:01:56.103Z,3982.50
2019-06-07T08:02:58.618Z,1974.38
2019-06-07T08:03:56.273Z,1980.00
2019-06-07T08:05:20.554Z,2970.00
2019-06-07T08:05:58.586Z,2655.00
2019-06-07T08:06:56.065Z,2098.13
2019-06-07T08:08:00.192Z,2109.38
2019-06-07T08:08:56.953Z,3065.63
2019-06-07T08:09:59.595Z,3971.25
2019-06-07T08:10:56.438Z,4426.88
2019-06-07T08:12:00.092Z,4291.88
2019-06-07T08:13:14.170Z,2891.25
2019-06-07T08:13:57.307Z,3127.50
2019-06-07T08:14:58.522Z,2604.38
2019-06-07T08:15:58.764Z,2441.25
2019-06-07T08:16:56.435Z,2053.13
2019-06-07T08:17:59.631Z,2120.63
2019-06-07T08:18:58.588Z,4460.63
2019-06-07T08:19:55.060Z,4770.00
2019-06-07T08:21:17.206Z,4393.13
2019-06-07T08:21:55.672Z,3948.75
2019-06-07T08:22:58.867Z,2160.00
2019-06-07T08:23:58.325Z,1878.75
2019-06-07T08:24:55.973Z,3442.50
2019-06-07T08:25:57.252Z,2953.13
2019-06-07T08:27:18.285Z,2137.50
2019-06-07T08:27:56.006Z,1670.63
2019-06-07T08:28:58.452Z,1620.00
2019-06-07T08:30:08.864Z,1816.88
2019-06-07T08:31:03.652Z,2953.13
2019-06-07T08:31:55.813Z,3487.50
2019-06-07T08:33:01.487Z,4449.38
2019-06-07T08:33:57.995Z,5287.50
2019-06-07T08:34:59.774Z,4173.75
2019-06-07T08:36:54.919Z,1586.25
2019-06-07T08:38:21.469Z,1406.25
2019-06-07T08:38:57.867Z,1372.50
2019-06-07T08:39:56.759Z,1434.38
2019-06-07T08:40:59.074Z,1580.63
2019-06-07T08:42:09.782Z,1648.13
2019-06-07T08:43:10.806Z,1563.75
2019-06-07T08:43:56.460Z,1462.50
2019-06-07T08:44:54.327Z,1456.88
2019-06-07T08:46:01.148Z,1440.00
2019-06-07T08:47:11.584Z,1411.88
2019-06-07T08:47:59.393Z,1366.88
2019-06-07T08:48:55.978Z,1344.38
2019-06-07T08:49:56.749Z,1310.63
2019-06-07T08:50:55.324Z,1248.75
2019-06-07T08:52:02.593Z,1192.50
2019-06-07T08:52:56.984Z,1192.50
2019-06-07T08:54:08.676Z,1181.25
2019-06-07T08:54:54.892Z,1158.75
2019-06-07T08:55:58.769Z,1130.63
2019-06-07T08:56:58.263Z,1136.25
2019-06-07T08:57:57.240Z,1231.88
2019-06-07T08:58:55.013Z,1485.00
2019-06-07T08:59:55.687Z,1586.25
2019-06-07T09:00:55.525Z,1524.38
2019-06-07T09:01:57.975Z,1468.13
2019-06-07T09:02:54.979Z,1355.63
2019-06-07T09:03:59.562Z,1316.25
2019-06-07T09:04:56.410Z,1321.88
2019-06-07T09:05:54.189Z,1321.88
2019-06-07T09:07:07.258Z,1243.13
2019-06-07T09:08:12.988Z,1141.88
2019-06-07T09:08:53.823Z,1063.13
2019-06-07T09:09:58.550Z,1029.38
2019-06-07T09:10:54.066Z,1006.88
2019-06-07T09:11:54.726Z,1006.88
2019-06-07T09:12:57.895Z,1057.50
2019-06-07T09:13:54.473Z,1113.75
2019-06-07T09:15:06.863Z,1147.50
2019-06-07T09:15:55.184Z,1220.63
2019-06-07T09:16:55.404Z,1248.75
2019-06-07T09:18:57.043Z,1231.88
2019-06-07T09:19:54.137Z,1321.88
2019-06-07T09:20:52.541Z,1338.75
2019-06-07T09:21:52.541Z,1276.88
2019-06-07T09:22:52.504Z,1198.13
2019-06-07T09:23:52.472Z,1209.38
2019-06-07T09:24:52.432Z,1321.88
2019-06-07T09:26:02.572Z,1366.88
2019-06-07T09:26:52.430Z,1338.75
2019-06-07T09:27:52.362Z,1288.13
2019-06-07T09:28:52.325Z,1237.50
2019-06-07T09:29:52.303Z,1203.75
2019-06-07T09:30:52.319Z,1170.00
2019-06-07T09:31:53.703Z,1153.13
2019-06-07T09:32:52.255Z,1175.63
2019-06-07T09:33:52.203Z,1170.00
2019-06-07T09:34:52.157Z,1158.75
2019-06-07T09:35:52.142Z,1125.00
2019-06-07T09:36:52.082Z,1181.25
2019-06-07T09:38:07.323Z,1366.88
2019-06-07T09:38:52.035Z,1400.63
2019-06-07T09:39:52.003Z,1428.75
2019-06-07T09:40:51.972Z,1468.13
2019-06-07T09:41:51.939Z,1541.25
2019-06-07T09:43:38.658Z,1586.25
2019-06-07T09:44:04.731Z,1552.50
2019-06-07T09:44:51.847Z,1535.63
2019-06-07T09:45:51.816Z,1558.13
2019-06-07T09:47:12.500Z,1603.13
2019-06-07T09:47:51.826Z,1693.13
2019-06-07T09:49:51.700Z,1766.25
2019-06-07T09:50:51.696Z,1833.75
2019-06-07T09:51:51.639Z,1777.50
2019-06-07T09:52:58.555Z,1676.25
2019-06-07T09:53:51.591Z,1670.63
2019-06-07T09:55:19.693Z,1676.25
2019-06-07T09:55:51.520Z,1665.00
2019-06-07T09:56:51.487Z,1687.50
2019-06-07T09:57:51.480Z,1777.50
2019-06-07T09:58:53.562Z,1828.13
2019-06-07T09:59:51.416Z,1850.63
2019-06-07T10:00:51.377Z,1912.50
2019-06-07T10:01:51.353Z,1991.25
2019-06-07T10:02:51.328Z,2025.00
2019-06-07T10:03:51.312Z,2092.50
2019-06-07T10:04:51.269Z,2086.88
2019-06-07T10:05:51.235Z,1980.00
2019-06-07T10:06:51.215Z,1923.75
2019-06-07T10:08:00.497Z,1845.00
2019-06-07T10:10:19.621Z,2081.25
2019-06-07T10:10:51.087Z,2317.50
2019-06-07T10:11:51.073Z,2379.38
2019-06-07T10:12:51.037Z,2424.38
2019-06-07T10:13:51.008Z,2671.88
2019-06-07T10:14:50.968Z,2385.00
2019-06-07T10:15:53.659Z,2064.38
2019-06-07T10:16:50.917Z,1850.63
2019-06-07T10:17:50.895Z,1749.38
2019-06-07T10:18:50.866Z,1732.50
2019-06-07T10:19:50.838Z,1816.88
2019-06-07T10:20:50.804Z,1895.63
2019-06-07T10:21:50.784Z,1968.75
2019-06-07T10:22:50.782Z,1957.50
2019-06-07T10:23:50.744Z,2058.75
2019-06-07T10:24:50.693Z,2520.00
2019-06-07T10:25:50.688Z,2593.13
2019-06-07T10:26:50.654Z,2632.50
2019-06-07T10:27:50.653Z,2576.25
2019-06-07T10:28:53.370Z,2953.13
2019-06-07T10:29:50.561Z,2857.50
2019-06-07T10:30:50.559Z,2722.50
2019-06-07T10:31:50.516Z,2829.38
2019-06-07T10:32:52.157Z,2700.00
2019-06-07T10:33:50.445Z,2238.75
2019-06-07T10:34:50.426Z,2120.63
2019-06-07T10:35:50.412Z,2283.75
2019-06-07T10:36:50.375Z,2328.75
2019-06-07T10:37:50.343Z,2491.88
2019-06-07T10:38:50.305Z,2542.50
2019-06-07T10:39:50.291Z,2351.25
2019-06-07T10:40:50.254Z,2272.50
2019-06-07T10:41:50.245Z,2379.38
2019-06-07T10:42:50.220Z,2722.50
2019-06-07T10:43:50.196Z,2683.13
2019-06-07T10:44:50.170Z,2581.88
2019-06-07T10:45:50.157Z,2396.25
2019-06-07T10:46:50.108Z,2199.38
2019-06-07T10:47:50.109Z,2160.00
2019-06-07T10:48:50.054Z,2289.38
2019-06-07T10:49:50.017Z,2306.25
2019-06-07T10:50:50.020Z,2148.75
2019-06-07T10:51:49.966Z,2008.13
2019-06-07T10:52:49.955Z,1991.25
2019-06-07T10:53:49.915Z,2098.13
2019-06-07T10:54:49.911Z,2340.00
2019-06-07T10:55:49.893Z,2745.00
2019-06-07T10:56:49.836Z,3009.38
2019-06-07T10:57:49.809Z,2722.50
2019-06-07T10:58:49.773Z,2480.63
2019-06-07T10:59:49.752Z,3712.50
2019-06-07T11:00:49.761Z,3223.13
2019-06-07T11:01:49.708Z,2306.25
2019-06-07T11:02:49.685Z,2143.13
2019-06-07T11:03:49.653Z,2531.25
2019-06-07T11:04:49.617Z,2711.25
2019-06-07T11:05:49.600Z,2531.25
2019-06-07T11:06:49.567Z,2626.88
2019-06-07T11:07:49.547Z,3155.63
2019-06-07T11:08:49.547Z,2531.25
2019-06-07T11:10:05.699Z,2250.00
2019-06-07T11:10:49.505Z,2660.63
2019-06-07T11:11:49.488Z,2643.75
2019-06-07T11:12:49.454Z,3099.38
2019-06-07T11:13:52.367Z,3600.00
2019-06-07T11:14:49.355Z,3436.88
2019-06-07T11:15:49.380Z,2671.88
2019-06-07T11:16:49.329Z,3616.88
2019-06-07T11:17:49.279Z,3661.88
2019-06-07T11:18:49.248Z,2975.63
2019-06-07T11:19:49.252Z,2576.25
2019-06-07T11:20:49.208Z,2655.00
2019-06-07T11:21:49.193Z,3003.75
2019-06-07T11:22:49.165Z,2739.38
2019-06-07T11:23:49.122Z,2936.25
2019-06-07T11:24:49.188Z,3875.63
2019-06-07T11:25:49.088Z,2660.63
2019-06-07T11:26:49.065Z,2705.63
2019-06-07T11:27:49.027Z,3583.13
2019-06-07T11:28:49.056Z,2958.75
2019-06-07T11:29:48.983Z,2632.50
2019-06-07T11:30:48.959Z,2480.63
2019-06-07T11:31:48.929Z,2334.38
2019-06-07T11:32:48.901Z,2340.00
2019-06-07T11:33:48.891Z,2362.50
2019-06-07T11:34:48.870Z,2064.38
2019-06-07T11:35:48.882Z,1951.88
2019-06-07T11:36:51.031Z,2064.38
2019-06-07T11:37:48.786Z,1951.88
2019-06-07T11:38:48.762Z,1828.13
2019-06-07T11:39:48.763Z,1788.75
2019-06-07T11:40:48.835Z,1816.88
2019-06-07T11:41:48.719Z,1873.13
2019-06-07T11:42:48.675Z,1839.38
2019-06-07T11:43:48.633Z,1794.38
2019-06-07T11:44:56.668Z,1755.00
2019-06-07T11:45:48.601Z,1704.38
2019-06-07T11:46:48.552Z,1575.00
2019-06-07T11:47:48.524Z,1445.63
2019-06-07T11:48:48.488Z,1451.25
2019-06-07T11:49:48.651Z,1575.00
2019-06-07T11:50:48.459Z,1771.88
2019-06-07T11:51:48.432Z,1811.25
2019-06-07T11:52:48.392Z,1861.88
2019-06-07T11:53:48.421Z,2036.25
2019-06-07T11:54:48.368Z,2036.25
2019-06-07T11:55:48.333Z,2103.75
2019-06-07T11:56:48.338Z,2148.75
2019-06-07T11:57:48.290Z,2233.13
2019-06-07T11:58:48.316Z,2362.50
2019-06-07T11:59:48.273Z,2413.13
2019-06-07T12:00:48.236Z,2385.00
2019-06-07T12:01:48.217Z,2385.00
2019-06-07T12:02:48.180Z,2390.63
2019-06-07T12:03:48.123Z,2469.38
2019-06-07T12:04:48.101Z,2463.75
2019-06-07T12:05:48.070Z,2655.00
2019-06-07T12:06:48.082Z,4680.00
2019-06-07T12:07:48.038Z,2745.00
2019-06-07T12:08:48.004Z,4207.50
2019-06-07T12:09:56.352Z,4972.50
2019-06-07T12:10:47.982Z,5343.75
2019-06-07T12:11:47.921Z,5366.25
2019-06-07T12:12:47.911Z,5034.38
2019-06-07T12:13:47.886Z,4263.75
2019-06-07T12:14:47.860Z,5090.63
2019-06-07T12:15:49.174Z,5152.50
2019-06-07T12:16:47.816Z,4635.00
2019-06-07T12:17:47.811Z,4590.00
2019-06-07T12:18:47.773Z,4398.75
2019-06-07T12:19:47.740Z,4646.25
2019-06-07T12:20:47.713Z,4618.13
2019-06-07T12:21:47.713Z,4168.13
2019-06-07T12:22:47.720Z,4556.25
2019-06-07T12:23:47.623Z,4972.50
2019-06-07T12:24:47.669Z,5203.13
2019-06-07T12:25:47.614Z,4786.88
2019-06-07T12:26:47.636Z,4691.25
2019-06-07T12:27:47.577Z,5270.63
2019-06-07T12:28:47.567Z,4680.00
2019-06-07T12:29:47.529Z,4140.00
2019-06-07T12:30:47.565Z,4106.25
2019-06-07T12:31:47.454Z,4336.88
2019-06-07T12:32:47.421Z,4522.50
2019-06-07T12:33:47.420Z,4612.50
2019-06-07T12:34:47.420Z,4201.88
2019-06-07T12:35:47.361Z,2885.63
2019-06-07T12:36:47.364Z,4483.13
2019-06-07T12:37:47.323Z,4803.75
2019-06-07T12:38:47.288Z,5371.88